Terminal Aerodrome Forecast
Issued by NWS

Home | Current Version | Previous Version | Text Only | Print | Product List | Glossary On
Versions: 1 2 3 4 5 6 7 8 9 10 11 12 13 14 15 16 17 18 19 20 21 22
000
FTUS43 KGRR 060500
TAFBTL
TAF
KBTL 060522Z 0606/0706 09004KT 6SM BR OVC005
     FM060700 09004KT 4SM BR OVC005
     FM061100 11006KT 1SM BR OVC002
     FM061500 11005KT 4SM BR OVC003
     FM061700 14005KT 6SM HZ OVC015
     FM061800 15005KT P6SM OVC100
     FM061900 18005KT P6SM OVC250=

USA.gov is the U.S. government's official web portal to all federal, state and local government web resources and services.